Time;durP1;ratioP1;P1;durP2;ratioP2;P2;SDS_P1;SDS_P2;PMS_P1;PMS_P2;Temp;Humidity;BMP_temperature;BMP_pressure;BME280_temperature;BME280_humidity;BME280_pressure;Samples;Min_cycle;Max_cycle;Signal;HPM_P1;HPM_P2
2021/08/25 00:00:30;;;;;;;;;;;15.60;68.10;;;;;;4961052;28;96005;-63
2021/08/25 00:03:00;;;;;;;14.27;9.68;;;15.60;68.10;;;;;;4965196;28;96224;-64
2021/08/25 00:05:31;;;;;;;17.85;11.02;;;15.60;68.20;;;;;;4965415;28;96298;-63
2021/08/25 00:08:02;;;;;;;14.25;9.82;;;15.70;68.30;;;;;;4957086;28;95907;-62
2021/08/25 00:10:34;;;;;;;15.93;10.10;;;15.80;68.30;;;;;;4960395;28;95980;-63
2021/08/25 00:13:08;;;;;;;13.13;10.13;;;15.80;68.20;;;;;;4961380;28;95913;-55
2021/08/25 00:15:41;;;;;;;14.23;9.25;;;15.90;68.20;;;;;;4954940;28;95979;-52
2021/08/25 00:18:13;;;;;;;13.57;8.63;;;15.90;68.10;;;;;;4960627;28;96589;-50
2021/08/25 00:20:45;;;;;;;13.15;8.63;;;16.00;67.90;;;;;;4959353;28;95978;-53
2021/08/25 00:23:17;;;;;;;10.82;7.43;;;16.00;67.90;;;;;;4957339;28;97165;-54
2021/08/25 00:25:47;;;;;;;8.05;6.15;;;16.00;67.80;;;;;;4956807;28;95661;-53
2021/08/25 00:28:19;;;;;;;10.60;7.38;;;16.10;67.70;;;;;;4959496;28;96638;-53
2021/08/25 00:30:49;;;;;;;9.32;7.35;;;16.10;67.70;;;;;;4957527;28;95845;-55
2021/08/25 00:33:19;;;;;;;11.45;7.22;;;16.20;67.60;;;;;;4961859;28;96162;-54
2021/08/25 00:35:49;;;;;;;9.48;7.00;;;16.30;67.60;;;;;;4960026;28;96346;-53
2021/08/25 00:38:20;;;;;;;11.55;7.15;;;16.30;67.30;;;;;;4960053;28;96848;-56
2021/08/25 00:40:51;;;;;;;10.77;6.55;;;16.30;67.10;;;;;;4954274;28;95856;-53
2021/08/25 00:43:21;;;;;;;9.35;5.97;;;16.40;67.00;;;;;;4959273;28;95718;-54
2021/08/25 00:45:51;;;;;;;9.68;6.03;;;16.40;67.10;;;;;;4954771;28;95745;-55
2021/08/25 00:48:21;;;;;;;8.05;6.05;;;16.50;67.00;;;;;;4959495;28;96044;-60
2021/08/25 00:50:54;;;;;;;7.05;5.45;;;16.50;66.90;;;;;;4962587;28;95644;-61
2021/08/25 00:53:25;;;;;;;7.03;5.50;;;16.50;66.80;;;;;;4963170;28;95809;-60
2021/08/25 00:56:06;;;;;;;8.50;5.20;;;16.60;66.70;;;;;;4963711;28;95808;-61
2021/08/25 00:58:40;;;;;;;6.55;4.68;;;16.70;66.90;;;;;;4952328;28;96418;-63
2021/08/25 01:01:23;;;;;;;5.72;4.38;;;16.70;66.60;;;;;;4958720;28;96647;-64
2021/08/25 01:04:04;;;;;;;6.45;4.65;;;16.80;66.50;;;;;;4966824;28;95254;-63
2021/08/25 01:06:37;;;;;;;6.27;4.53;;;16.80;66.40;;;;;;4968198;28;95648;-56
2021/08/25 01:09:07;;;;;;;4.28;3.72;;;16.90;66.50;;;;;;4966307;28;96819;-57
2021/08/25 01:11:44;;;;;;;9.43;4.22;;;17.00;66.90;;;;;;4967754;28;95678;-64
2021/08/25 01:14:16;;;;;;;11.00;4.45;;;17.10;67.10;;;;;;4961498;28;95898;-62
2021/08/25 01:16:51;;;;;;;4.88;3.47;;;17.20;66.50;;;;;;4958674;28;95917;-61
2021/08/25 01:19:23;;;;;;;5.20;3.40;;;17.20;66.10;;;;;;4963756;28;97068;-62
2021/08/25 01:21:55;;;;;;;3.92;3.08;;;17.20;66.10;;;;;;4965362;28;96186;-63
2021/08/25 01:24:27;;;;;;;7.65;3.92;;;17.20;65.90;;;;;;4963908;28;95220;-62
2021/08/25 01:27:01;;;;;;;4.20;3.35;;;17.20;65.70;;;;;;4997684;28;96103;-62
2021/08/25 01:29:34;;;;;;;7.30;3.70;;;17.20;65.50;;;;;;4963306;28;96744;-53
2021/08/25 01:32:05;;;;;;;7.25;4.43;;;17.20;65.30;;;;;;4955991;28;95876;-52
2021/08/25 01:34:54;;;;;;;7.05;4.72;;;17.20;65.10;;;;;;4965640;28;96049;-62
2021/08/25 01:37:26;;;;;;;4.95;4.03;;;17.20;65.10;;;;;;4962723;28;95909;-55
2021/08/25 01:39:58;;;;;;;7.18;4.53;;;17.20;65.70;;;;;;4964023;28;96572;-54
2021/08/25 01:42:28;;;;;;;5.47;3.75;;;17.30;64.90;;;;;;4962972;28;95870;-52
2021/08/25 01:44:59;;;;;;;5.50;3.20;;;17.30;64.70;;;;;;4964778;28;96180;-54
2021/08/25 01:47:29;;;;;;;;;;;17.40;64.80;;;;;;4957181;28;96279;-51
2021/08/25 01:49:59;;;;;;;5.10;3.50;;;17.40;64.60;;;;;;4961027;28;95847;-54
2021/08/25 01:52:29;;;;;;;5.18;3.75;;;17.40;64.70;;;;;;4962959;28;95686;-53
2021/08/25 01:55:00;;;;;;;5.20;3.50;;;17.50;64.50;;;;;;4963968;28;96086;-55
2021/08/25 01:57:33;;;;;;;6.30;2.83;;;17.60;64.40;;;;;;4961842;28;96399;-53
2021/08/25 02:00:06;;;;;;;5.03;3.35;;;17.60;64.40;;;;;;4958203;28;96002;-54
2021/08/25 02:02:38;;;;;;;5.57;3.08;;;17.60;64.40;;;;;;4960297;28;95866;-54
2021/08/25 02:05:11;;;;;;;3.90;2.53;;;17.60;64.30;;;;;;4959609;28;98752;-55
2021/08/25 02:07:41;;;;;;;4.53;2.80;;;17.60;64.40;;;;;;4964143;28;95990;-54
2021/08/25 02:10:12;;;;;;;2.78;2.38;;;17.70;64.50;;;;;;4992747;28;97998;-62
2021/08/25 02:12:42;;;;;;;3.60;2.63;;;17.80;64.80;;;;;;4955681;28;97815;-54
2021/08/25 02:15:15;;;;;;;2.78;2.47;;;17.80;64.90;;;;;;4958196;28;96900;-56
2021/08/25 02:17:47;;;;;;;2.40;2.20;;;17.90;65.40;;;;;;4961878;28;96109;-55
2021/08/25 02:20:19;;;;;;;3.00;2.42;;;17.90;65.50;;;;;;4959179;28;96794;-62
2021/08/25 02:22:51;;;;;;;3.47;2.30;;;18.10;65.60;;;;;;4960132;28;95610;-53
2021/08/25 02:25:24;;;;;;;2.55;2.15;;;18.10;65.40;;;;;;4965230;28;95373;-63
2021/08/25 02:27:54;;;;;;;2.92;2.20;;;18.20;65.50;;;;;;4962522;28;95894;-64
2021/08/25 02:30:24;;;;;;;3.30;2.40;;;18.20;65.50;;;;;;4957806;28;96869;-64
2021/08/25 02:32:54;;;;;;;3.13;2.33;;;18.20;63.50;;;;;;4963065;28;95939;-63
2021/08/25 02:35:25;;;;;;;4.90;2.10;;;18.10;63.60;;;;;;4964894;28;96216;-64
2021/08/25 02:37:56;;;;;;;3.40;1.88;;;18.00;63.80;;;;;;4956761;28;95950;-65
2021/08/25 02:40:28;;;;;;;2.47;2.10;;;17.90;64.00;;;;;;4962075;28;95917;-64
2021/08/25 02:42:58;;;;;;;2.92;2.08;;;17.80;65.00;;;;;;4964781;28;96344;-65
2021/08/25 02:45:28;;;;;;;2.45;1.85;;;17.70;64.90;;;;;;4960123;28;95292;-62
2021/08/25 02:48:00;;;;;;;2.40;1.55;;;17.70;64.90;;;;;;4965774;28;95775;-63
2021/08/25 02:50:29;;;;;;;2.40;1.70;;;17.70;65.10;;;;;;4993208;28;96443;-67
2021/08/25 02:52:59;;;;;;;3.47;1.90;;;17.70;65.00;;;;;;4961442;28;95632;-55
2021/08/25 02:55:29;;;;;;;3.65;1.70;;;17.70;64.90;;;;;;4962572;28;95744;-63
2021/08/25 02:57:59;;;;;;;2.65;1.88;;;17.70;64.90;;;;;;4961996;28;95864;-61
2021/08/25 03:00:31;;;;;;;2.40;1.27;;;17.80;65.50;;;;;;4960997;28;96431;-64
2021/08/25 03:03:01;;;;;;;3.58;1.38;;;17.90;65.30;;;;;;4968343;28;95882;-67
2021/08/25 03:05:32;;;;;;;1.77;1.43;;;18.00;64.10;;;;;;4970694;28;95845;-67
2021/08/25 03:08:04;;;;;;;2.47;1.42;;;18.00;64.00;;;;;;4971625;28;95731;-63
2021/08/25 03:10:34;;;;;;;1.70;1.30;;;18.00;63.90;;;;;;4965626;28;96555;-63
2021/08/25 03:13:05;;;;;;;;;;;17.90;64.10;;;;;;4966135;28;96373;-62
2021/08/25 03:15:37;;;;;;;3.03;1.48;;;18.00;64.20;;;;;;4965758;28;95395;-63
2021/08/25 03:18:08;;;;;;;2.33;1.45;;;18.10;64.30;;;;;;4966206;28;95811;-63
2021/08/25 03:20:39;;;;;;;3.85;1.20;;;18.20;64.30;;;;;;4966206;28;95459;-63
2021/08/25 03:23:10;;;;;;;1.42;1.30;;;18.30;64.40;;;;;;4968469;28;96471;-62
2021/08/25 03:25:41;;;;;;;1.55;1.40;;;18.40;64.60;;;;;;4967131;28;95787;-63
2021/08/25 03:28:12;;;;;;;1.25;1.15;;;18.50;64.80;;;;;;4964226;28;95757;-64
2021/08/25 03:30:44;;;;;;;2.17;1.08;;;18.50;65.00;;;;;;4961579;28;96072;-65
2021/08/25 03:33:14;;;;;;;1.10;1.00;;;18.60;65.10;;;;;;5000119;28;96918;-64
2021/08/25 03:35:46;;;;;;;2.33;1.17;;;18.70;65.10;;;;;;4968133;28;95810;-64
2021/08/25 03:38:16;;;;;;;1.45;1.00;;;18.80;65.10;;;;;;4967618;28;95621;-66
2021/08/25 03:40:48;;;;;;;1.00;0.90;;;18.90;65.00;;;;;;4966243;28;96094;-63
2021/08/25 03:43:18;;;;;;;;;;;19.00;64.90;;;;;;4964987;28;95342;-54
2021/08/25 03:45:49;;;;;;;1.58;1.02;;;19.10;64.80;;;;;;4960279;28;95937;-63
2021/08/25 03:48:24;;;;;;;1.30;1.20;;;19.10;64.60;;;;;;4964467;28;95878;-56
2021/08/25 03:50:56;;;;;;;2.30;0.80;;;19.20;64.50;;;;;;4964668;28;96020;-53
2021/08/25 03:53:26;;;;;;;1.23;0.93;;;19.30;64.40;;;;;;4982655;28;95443;-63
2021/08/25 03:55:56;;;;;;;0.80;0.80;;;19.40;64.10;;;;;;4981116;28;96336;-55
2021/08/25 03:58:26;;;;;;;1.10;0.90;;;19.50;63.90;;;;;;4980485;28;95894;-63
2021/08/25 04:00:58;;;;;;;1.60;0.97;;;19.50;63.80;;;;;;4970844;28;96127;-55
2021/08/25 04:03:28;;;;;;;1.65;0.95;;;19.60;63.70;;;;;;4958535;28;96102;-62
2021/08/25 04:05:58;;;;;;;1.77;0.90;;;19.60;63.70;;;;;;4978614;28;96727;-62
2021/08/25 04:08:30;;;;;;;1.60;0.95;;;19.60;63.70;;;;;;4982355;28;95685;-62
2021/08/25 04:11:00;;;;;;;2.25;0.80;;;19.70;63.90;;;;;;4995237;28;95880;-64
2021/08/25 04:13:31;;;;;;;;;;;19.60;60.50;;;;;;4980297;28;96515;-63
2021/08/25 04:16:02;;;;;;;1.10;0.88;;;19.40;60.10;;;;;;4976364;28;95841;-64
2021/08/25 04:18:33;;;;;;;1.88;1.05;;;19.20;60.70;;;;;;4974311;28;96328;-63
2021/08/25 04:21:04;;;;;;;4.15;1.15;;;19.10;61.30;;;;;;4963448;28;96498;-70
2021/08/25 04:23:36;;;;;;;3.30;0.95;;;19.00;61.80;;;;;;4982777;28;95825;-70
2021/08/25 04:26:06;;;;;;;2.10;1.10;;;18.90;62.00;;;;;;4981007;28;95846;-69
2021/08/25 04:28:37;;;;;;;;;;;18.80;62.20;;;;;;4964463;28;97175;-64
2021/08/25 04:31:10;;;;;;;3.35;0.88;;;18.70;62.50;;;;;;4972660;28;95980;-65
2021/08/25 04:33:41;;;;;;;1.15;0.90;;;18.80;62.90;;;;;;4962894;28;96651;-64
2021/08/25 04:36:11;;;;;;;;;;;19.00;63.10;;;;;;4978970;28;96619;-65
2021/08/25 04:38:42;;;;;;;1.38;1.08;;;19.20;63.00;;;;;;4966102;28;95847;-63
2021/08/25 04:41:13;;;;;;;1.73;0.88;;;19.20;63.10;;;;;;4979470;28;98932;-65
2021/08/25 04:43:45;;;;;;;2.17;1.40;;;19.40;63.20;;;;;;4979289;28;95641;-64
2021/08/25 04:46:18;;;;;;;1.10;0.63;;;19.40;63.40;;;;;;4976003;28;95920;-63
2021/08/25 04:48:48;;;;;;;1.25;0.90;;;19.50;63.50;;;;;;4984321;28;95988;-62
2021/08/25 04:51:18;;;;;;;1.25;1.13;;;19.60;63.70;;;;;;4983780;28;95884;-64
2021/08/25 04:53:49;;;;;;;4.00;1.05;;;19.60;63.70;;;;;;4981436;28;96493;-64
2021/08/25 04:56:18;;;;;;;1.15;0.90;;;19.60;63.80;;;;;;4985981;28;95553;-62
2021/08/25 04:58:49;;;;;;;1.48;0.90;;;19.70;63.90;;;;;;4972670;28;95905;-62
2021/08/25 05:01:20;;;;;;;1.90;1.10;;;19.70;64.00;;;;;;4977926;28;95829;-65
2021/08/25 05:03:51;;;;;;;1.08;1.00;;;19.80;64.10;;;;;;4980588;28;96362;-63
2021/08/25 05:06:22;;;;;;;0.93;0.77;;;19.80;64.10;;;;;;4978310;28;96513;-64
2021/08/25 05:08:53;;;;;;;2.65;1.50;;;19.90;64.20;;;;;;4974314;28;96492;-65
2021/08/25 05:11:23;;;;;;;3.08;2.25;;;19.90;63.40;;;;;;4981518;28;95854;-65
2021/08/25 05:13:54;;;;;;;4.63;2.10;;;19.80;61.50;;;;;;4980878;28;95874;-68
2021/08/25 05:16:25;;;;;;;3.58;2.38;;;19.70;62.10;;;;;;4968905;28;96761;-67
2021/08/25 05:18:56;;;;;;;2.22;2.03;;;19.70;62.40;;;;;;4965430;28;96744;-68
2021/08/25 05:21:27;;;;;;;3.80;2.40;;;19.70;62.70;;;;;;4982052;28;95898;-66
2021/08/25 05:24:01;;;;;;;4.60;2.40;;;19.60;62.50;;;;;;4979310;28;96699;-66
2021/08/25 05:26:31;;;;;;;2.28;2.08;;;19.70;62.50;;;;;;4978061;28;96572;-67
2021/08/25 05:29:02;;;;;;;2.78;2.30;;;19.70;62.50;;;;;;4983190;28;95918;-69
2021/08/25 05:31:32;;;;;;;2.38;2.10;;;19.70;62.80;;;;;;4977919;28;95852;-68
2021/08/25 05:34:02;;;;;;;1.95;1.75;;;19.70;62.50;;;;;;4982244;28;95399;-69
2021/08/25 05:36:34;;;;;;;4.05;2.38;;;19.70;62.60;;;;;;4996497;28;97053;-68
2021/08/25 05:39:04;;;;;;;1.98;1.77;;;19.70;62.70;;;;;;4983910;28;95974;-67
2021/08/25 05:41:35;;;;;;;2.22;1.70;;;19.70;62.60;;;;;;4977457;28;96592;-69
2021/08/25 05:44:06;;;;;;;2.10;1.60;;;19.70;62.60;;;;;;4982062;28;95691;-66
2021/08/25 05:46:37;;;;;;;2.15;1.52;;;19.80;62.60;;;;;;4978394;28;96379;-69
2021/08/25 05:49:07;;;;;;;3.53;1.92;;;19.80;62.60;;;;;;4982491;28;96005;-68
2021/08/25 05:51:37;;;;;;;2.92;1.83;;;19.80;62.50;;;;;;4983208;28;97850;-69
2021/08/25 05:54:09;;;;;;;1.58;1.42;;;19.90;62.50;;;;;;4986013;28;97947;-67
2021/08/25 05:56:38;;;;;;;1.55;1.45;;;19.90;62.50;;;;;;4984043;28;96241;-55
2021/08/25 05:59:09;;;;;;;2.20;1.48;;;19.90;62.40;;;;;;4981214;28;95792;-68
2021/08/25 06:01:42;;;;;;;2.53;1.50;;;19.90;62.50;;;;;;4987328;28;95858;-70
2021/08/25 06:04:14;;;;;;;1.42;1.25;;;19.90;62.50;;;;;;4975250;28;97025;-67
2021/08/25 06:06:45;;;;;;;2.45;1.50;;;19.90;62.20;;;;;;4972921;28;95654;-69
2021/08/25 06:09:14;;;;;;;1.80;1.67;;;19.90;62.20;;;;;;4976334;28;95804;-68
2021/08/25 06:11:45;;;;;;;1.50;1.40;;;19.80;62.10;;;;;;4974036;28;96538;-70
2021/08/25 06:14:15;;;;;;;;;;;19.90;62.10;;;;;;4974135;28;95745;-69
2021/08/25 06:16:46;;;;;;;3.35;1.42;;;19.80;62.10;;;;;;4976648;28;95853;-69
2021/08/25 06:19:18;;;;;;;1.48;1.15;;;19.80;62.20;;;;;;4990386;28;95370;-69
2021/08/25 06:21:50;;;;;;;1.25;1.15;;;19.80;62.20;;;;;;4987379;28;95899;-69
2021/08/25 06:24:20;;;;;;;;;;;19.70;62.00;;;;;;4981337;28;95588;-69
2021/08/25 06:26:52;;;;;;;1.17;1.07;;;19.70;62.10;;;;;;4993093;28;95386;-69
2021/08/25 06:29:23;;;;;;;1.38;1.02;;;19.70;62.80;;;;;;4991358;28;95865;-68
2021/08/25 06:31:53;;;;;;;0.80;0.80;;;19.70;62.50;;;;;;4996579;28;98480;-69
2021/08/25 06:34:24;;;;;;;1.65;1.10;;;19.70;62.10;;;;;;4988643;28;95912;-69
2021/08/25 06:36:55;;;;;;;1.40;1.00;;;19.60;62.30;;;;;;4989050;28;96032;-65
2021/08/25 06:39:26;;;;;;;1.58;1.10;;;19.60;62.40;;;;;;4991246;28;95695;-66
2021/08/25 06:41:56;;;;;;;1.00;0.90;;;19.60;62.60;;;;;;4988508;28;96206;-53
2021/08/25 06:44:26;;;;;;;1.15;1.05;;;19.60;62.90;;;;;;4987345;28;96309;-65
2021/08/25 06:46:56;;;;;;;1.90;1.13;;;19.70;63.20;;;;;;4981605;28;95859;-64
2021/08/25 06:49:26;;;;;;;1.50;1.10;;;19.70;63.20;;;;;;4964029;28;97127;-65
2021/08/25 06:51:58;;;;;;;7.63;1.17;;;19.70;63.30;;;;;;4979640;28;96777;-67
2021/08/25 06:54:29;;;;;;;2.15;1.27;;;19.80;63.10;;;;;;4971376;28;95930;-68
2021/08/25 06:57:00;;;;;;;4.25;1.00;;;19.70;63.00;;;;;;4983460;28;95631;-65
2021/08/25 06:59:30;;;;;;;3.20;0.90;;;19.70;63.40;;;;;;4978204;28;95965;-65
2021/08/25 07:02:03;;;;;;;4.07;0.90;;;19.70;62.90;;;;;;4961202;28;96022;-65
2021/08/25 07:04:34;;;;;;;1.73;0.90;;;19.70;63.00;;;;;;4943052;28;96193;-66
2021/08/25 07:07:05;;;;;;;5.53;1.40;;;19.70;62.40;;;;;;4944426;28;95865;-64
2021/08/25 07:09:35;;;;;;;5.90;1.40;;;19.70;62.50;;;;;;4928786;28;96388;-62
2021/08/25 07:12:05;;;;;;;2.55;1.20;;;19.60;62.30;;;;;;4926663;28;96068;-60
2021/08/25 07:14:37;;;;;;;;;;;19.50;62.50;;;;;;4949807;28;96013;-63
2021/08/25 07:17:08;;;;;;;2.38;1.55;;;19.50;62.90;;;;;;4959338;28;97240;-63
2021/08/25 07:19:41;;;;;;;;;;;19.40;63.60;;;;;;4960550;28;96105;-64
2021/08/25 07:22:13;;;;;;;4.97;2.30;;;19.40;63.00;;;;;;4941978;28;98277;-61
2021/08/25 07:24:46;;;;;;;7.90;3.15;;;19.30;62.90;;;;;;4954705;28;95581;-60
2021/08/25 07:27:18;;;;;;;6.72;3.80;;;19.30;62.90;;;;;;4930671;28;95740;-61
2021/08/25 07:29:49;;;;;;;7.78;3.97;;;19.30;62.70;;;;;;4961720;28;95784;-61
2021/08/25 07:32:19;;;;;;;7.30;4.25;;;19.30;62.70;;;;;;4938212;28;97951;-62
2021/08/25 07:34:50;;;;;;;;;;;19.30;62.70;;;;;;4942041;28;98511;-62
2021/08/25 07:37:21;;;;;;;6.25;4.10;;;19.30;62.60;;;;;;4960293;28;95839;-62
2021/08/25 07:39:52;;;;;;;6.88;3.80;;;19.30;62.80;;;;;;4957261;28;95744;-62
2021/08/25 07:42:22;;;;;;;8.15;3.97;;;19.20;62.70;;;;;;4960603;28;96011;-62
2021/08/25 07:44:52;;;;;;;7.78;3.92;;;19.20;62.70;;;;;;4943227;28;96240;-55
2021/08/25 07:47:22;;;;;;;7.47;3.75;;;19.20;62.70;;;;;;4957271;28;95742;-61
2021/08/25 07:49:54;;;;;;;6.10;3.90;;;19.20;62.70;;;;;;4961440;28;95854;-62
2021/08/25 07:52:24;;;;;;;5.35;3.25;;;19.20;62.70;;;;;;4935636;28;98558;-60
2021/08/25 07:54:54;;;;;;;8.00;3.40;;;19.20;62.70;;;;;;4970993;28;97586;-62
2021/08/25 07:57:26;;;;;;;5.88;3.40;;;19.20;62.80;;;;;;4956395;28;95955;-63
2021/08/25 07:59:57;;;;;;;5.00;3.53;;;19.10;63.20;;;;;;4954436;28;95321;-62
2021/08/25 08:02:30;;;;;;;7.30;3.85;;;19.00;62.70;;;;;;4958064;28;96069;-62
2021/08/25 08:05:02;;;;;;;7.13;4.07;;;19.00;62.80;;;;;;4958692;28;96491;-62
2021/08/25 08:07:35;;;;;;;6.72;4.05;;;19.00;63.00;;;;;;4957331;28;95963;-61
2021/08/25 08:10:08;;;;;;;7.63;4.28;;;18.90;63.10;;;;;;4957939;28;95649;-63
2021/08/25 08:12:38;;;;;;;8.65;4.75;;;18.90;63.30;;;;;;4953345;28;95845;-63
2021/08/25 08:15:11;;;;;;;11.20;5.13;;;18.90;63.50;;;;;;4912178;28;95334;-65
2021/08/25 08:17:46;;;;;;;12.88;4.78;;;18.90;63.60;;;;;;4944451;28;95821;-63
2021/08/25 08:20:21;;;;;;;9.82;4.28;;;18.80;63.70;;;;;;4949150;28;96185;-63
2021/08/25 08:22:52;;;;;;;13.05;4.60;;;18.90;63.70;;;;;;4976385;28;97172;-63
2021/08/25 08:25:25;;;;;;;7.75;4.45;;;18.80;63.60;;;;;;4960612;28;96108;-63
2021/08/25 08:27:55;;;;;;;10.48;5.13;;;18.80;63.60;;;;;;4936816;28;95912;-63
2021/08/25 08:30:25;;;;;;;8.73;3.95;;;18.80;63.50;;;;;;4953788;28;96477;-62
2021/08/25 08:32:55;;;;;;;10.95;3.92;;;18.90;63.50;;;;;;4962133;28;96023;-63
2021/08/25 08:35:26;;;;;;;10.73;3.97;;;18.80;63.40;;;;;;4953422;28;95497;-63
2021/08/25 08:38:00;;;;;;;8.25;3.25;;;18.80;63.40;;;;;;4973420;28;96253;-62
2021/08/25 08:40:31;;;;;;;8.50;3.28;;;18.80;63.30;;;;;;4955130;28;95658;-63
2021/08/25 08:43:09;;;;;;;5.15;3.35;;;18.80;63.30;;;;;;4959095;28;96427;-62
2021/08/25 08:45:42;;;;;;;6.22;3.08;;;18.70;63.20;;;;;;4948160;28;95820;-62
2021/08/25 08:48:14;;;;;;;6.53;3.80;;;18.70;63.20;;;;;;4934550;28;95780;-62
2021/08/25 08:50:48;;;;;;;5.60;3.22;;;18.70;63.10;;;;;;4973129;28;95929;-63
2021/08/25 08:53:19;;;;;;;6.22;3.13;;;18.60;63.10;;;;;;4942084;28;95968;-63
2021/08/25 08:55:51;;;;;;;6.35;3.00;;;18.60;63.20;;;;;;4972731;28;96021;-62
2021/08/25 08:58:22;;;;;;;5.38;2.60;;;18.60;63.20;;;;;;4952645;28;96178;-62
2021/08/25 09:00:53;;;;;;;6.13;2.90;;;18.60;63.20;;;;;;4961145;28;95939;-62
2021/08/25 09:03:26;;;;;;;6.25;3.05;;;18.50;63.20;;;;;;4969242;28;95829;-61
2021/08/25 09:06:00;;;;;;;4.78;2.85;;;18.50;63.20;;;;;;4976274;28;95961;-62
2021/08/25 09:08:35;;;;;;;3.55;2.42;;;18.50;63.20;;;;;;4983399;28;96218;-63
2021/08/25 09:11:10;;;;;;;4.50;2.22;;;18.50;63.20;;;;;;4978971;28;97845;-63
2021/08/25 09:13:48;;;;;;;5.28;2.55;;;18.50;63.10;;;;;;4970426;28;95942;-62
2021/08/25 09:16:33;;;;;;;6.22;2.63;;;18.40;63.20;;;;;;4972913;28;96053;-63
2021/08/25 09:19:05;;;;;;;5.15;2.67;;;18.40;63.10;;;;;;4979367;28;95264;-62
2021/08/25 09:21:40;;;;;;;4.85;2.20;;;18.40;63.10;;;;;;4989010;28;95725;-63
2021/08/25 09:24:11;;;;;;;4.57;2.38;;;18.40;63.10;;;;;;4992742;28;96561;-64
2021/08/25 09:27:08;;;;;;;2.88;2.13;;;18.40;63.00;;;;;;4992275;28;95749;-63
2021/08/25 09:29:41;;;;;;;3.83;2.08;;;18.30;63.00;;;;;;4990405;28;97614;-63
2021/08/25 09:32:21;;;;;;;6.18;2.63;;;18.30;63.00;;;;;;4969254;28;95733;-63
2021/08/25 09:34:59;;;;;;;3.72;2.20;;;18.30;63.10;;;;;;4965594;28;95919;-64
2021/08/25 09:37:33;;;;;;;3.88;2.05;;;18.30;63.10;;;;;;4987666;28;96918;-63
2021/08/25 09:40:14;;;;;;;3.42;2.00;;;18.20;63.10;;;;;;5002068;28;95945;-51
2021/08/25 09:42:48;;;;;;;4.03;2.08;;;18.20;63.00;;;;;;4971161;28;95213;-51
2021/08/25 09:45:23;;;;;;;4.97;2.20;;;18.20;62.90;;;;;;4983540;28;98041;-62
2021/08/25 09:47:59;;;;;;;3.30;2.10;;;18.20;62.90;;;;;;4952377;28;97622;-52
2021/08/25 09:50:30;;;;;;;2.65;1.90;;;18.20;62.90;;;;;;4991024;28;95763;-49
2021/08/25 09:53:00;;;;;;;3.60;2.10;;;18.20;62.80;;;;;;4985743;28;95779;-61
2021/08/25 09:55:34;;;;;;;6.35;2.70;;;18.20;62.90;;;;;;4979283;28;96030;-62
2021/08/25 09:58:16;;;;;;;5.95;2.28;;;18.10;63.10;;;;;;4968327;28;96337;-63
2021/08/25 10:00:47;;;;;;;8.30;2.22;;;18.00;63.20;;;;;;4963163;28;95713;-62
2021/08/25 10:03:20;;;;;;;5.13;2.13;;;18.00;63.70;;;;;;4973222;28;97838;-53
2021/08/25 10:05:51;;;;;;;8.13;2.60;;;17.80;63.50;;;;;;4993082;28;96104;-61
2021/08/25 10:08:21;;;;;;;;;;;17.80;63.90;;;;;;4953381;28;96029;-49
2021/08/25 10:10:52;;;;;;;4.93;2.10;;;17.70;64.30;;;;;;4970615;28;96069;-62
2021/08/25 10:13:27;;;;;;;8.98;2.72;;;17.60;64.80;;;;;;4973354;28;95266;-52
2021/08/25 10:15:57;;;;;;;5.72;2.80;;;17.50;65.00;;;;;;4967178;28;96709;-62
2021/08/25 10:18:37;;;;;;;9.80;2.45;;;17.50;65.30;;;;;;4969998;28;95925;-50
2021/08/25 10:21:34;;;;;;;4.45;2.10;;;17.40;65.60;;;;;;4955480;28;95901;-61
2021/08/25 10:24:05;;;;;;;5.28;2.70;;;17.40;65.30;;;;;;4974473;28;95640;-62
2021/08/25 10:27:06;;;;;;;5.65;2.58;;;17.40;65.10;;;;;;4973321;28;95913;-61
2021/08/25 10:30:03;;;;;;;7.20;2.22;;;17.40;65.30;;;;;;4957473;28;96189;-51
2021/08/25 10:32:39;;;;;;;5.47;2.28;;;17.40;65.40;;;;;;4967045;28;95923;-49
2021/08/25 10:35:19;;;;;;;7.70;2.45;;;17.40;65.40;;;;;;4984965;28;96178;-60
2021/08/25 10:38:12;;;;;;;3.25;1.80;;;17.40;65.50;;;;;;4969691;28;96259;-61
2021/08/25 10:40:44;;;;;;;7.53;2.53;;;17.30;65.50;;;;;;4972576;28;96943;-61
2021/08/25 10:43:36;;;;;;;5.15;2.17;;;17.20;65.70;;;;;;4971742;28;95931;-50
2021/08/25 10:46:08;;;;;;;6.55;2.33;;;17.20;65.80;;;;;;4968282;28;95861;-62
2021/08/25 10:48:44;;;;;;;5.05;2.05;;;17.20;65.80;;;;;;4967269;28;96266;-51
2021/08/25 10:51:29;;;;;;;3.28;2.03;;;17.10;65.90;;;;;;4971668;28;96155;-53
2021/08/25 10:54:03;;;;;;;7.90;2.28;;;17.10;66.00;;;;;;4971264;28;95727;-51
2021/08/25 10:56:35;;;;;;;5.50;2.13;;;17.00;66.10;;;;;;4961361;28;95709;-55
2021/08/25 10:59:19;;;;;;;5.95;1.90;;;17.00;66.20;;;;;;4971104;28;96190;-49
2021/08/25 11:01:55;;;;;;;8.65;2.65;;;17.00;66.30;;;;;;4967544;28;95462;-49
2021/08/25 11:04:26;;;;;;;7.20;2.58;;;17.00;66.60;;;;;;4978441;28;95616;-51
2021/08/25 11:07:04;;;;;;;6.07;2.00;;;16.90;66.40;;;;;;4976100;28;95414;-50
2021/08/25 11:15:41;;;;;;;5.63;2.13;;;16.80;67.10;;;;;;1365575;25;96884;-52
2021/08/25 11:18:36;;;;;;;5.32;1.90;;;16.70;67.40;;;;;;5004229;28;95864;-55
2021/08/25 11:21:09;;;;;;;4.95;1.77;;;16.70;67.40;;;;;;5008052;28;95926;-50
2021/08/25 11:23:54;;;;;;;5.65;2.42;;;16.60;67.40;;;;;;5008445;28;95877;-54
2021/08/25 11:26:30;;;;;;;3.63;1.92;;;16.60;67.50;;;;;;5004875;28;95746;-49
2021/08/25 11:29:01;;;;;;;3.35;2.00;;;16.50;67.50;;;;;;4999439;28;95595;-52
2021/08/25 11:31:33;;;;;;;6.18;2.90;;;16.50;67.50;;;;;;5002736;28;97556;-48
2021/08/25 11:34:06;;;;;;;4.75;2.45;;;16.40;67.60;;;;;;5006509;28;95707;-52
2021/08/25 11:36:55;;;;;;;4.28;2.13;;;16.40;67.60;;;;;;4995235;28;95777;-51
2021/08/25 11:39:27;;;;;;;5.95;2.25;;;16.40;67.60;;;;;;4994398;28;95163;-49
2021/08/25 11:41:58;;;;;;;4.32;1.98;;;16.30;67.60;;;;;;5004589;28;95933;-54
2021/08/25 11:44:37;;;;;;;5.43;2.35;;;16.30;67.70;;;;;;5007507;28;95443;-52
2021/08/25 11:47:11;;;;;;;4.13;2.20;;;16.30;67.60;;;;;;5006929;28;95962;-51
2021/08/25 11:49:42;;;;;;;2.22;1.63;;;16.30;67.70;;;;;;5008770;28;95332;-53
2021/08/25 11:52:14;;;;;;;2.73;1.80;;;16.20;67.70;;;;;;5031753;22;96017;-48
2021/08/25 11:54:46;;;;;;;3.72;2.00;;;16.30;67.80;;;;;;4974577;28;95976;-51
2021/08/25 11:57:17;;;;;;;3.38;1.88;;;16.20;67.70;;;;;;4985637;28;95686;-49
2021/08/25 11:59:58;;;;;;;4.43;2.20;;;16.20;67.70;;;;;;4959016;28;95685;-49
2021/08/25 12:02:59;;;;;;;3.80;2.08;;;16.20;67.70;;;;;;4957232;28;95768;-48
2021/08/25 12:05:33;;;;;;;3.45;1.70;;;16.20;68.40;;;;;;5001695;22;97946;-49
2021/08/25 12:08:14;;;;;;;4.57;2.17;;;16.10;67.70;;;;;;4964503;28;95642;-48
2021/08/25 12:11:05;;;;;;;2.13;2.03;;;16.10;67.70;;;;;;4962741;28;98367;-48
2021/08/25 12:13:46;;;;;;;4.30;2.38;;;16.00;67.70;;;;;;4958325;28;97231;-49
2021/08/25 12:16:31;;;;;;;5.05;1.90;;;16.00;67.70;;;;;;4955696;28;95320;-49
2021/08/25 12:19:05;;;;;;;3.42;1.90;;;16.00;67.80;;;;;;4962848;28;95842;-48
2021/08/25 12:21:38;;;;;;;3.47;2.30;;;16.00;67.70;;;;;;4959554;28;95929;-48
2021/08/25 12:24:12;;;;;;;5.00;2.47;;;15.90;67.70;;;;;;4958603;28;95943;-49
2021/08/25 12:26:56;;;;;;;2.38;2.00;;;15.90;67.70;;;;;;4965243;28;95820;-49
2021/08/25 12:29:32;;;;;;;5.95;2.47;;;15.90;67.70;;;;;;4968556;28;95972;-48
2021/08/25 12:32:02;;;;;;;3.08;1.75;;;15.90;67.80;;;;;;4963778;28;98244;-48
2021/08/25 12:34:34;;;;;;;4.10;1.97;;;15.80;67.70;;;;;;4969603;28;95877;-49
2021/08/25 12:37:05;;;;;;;4.38;1.88;;;15.80;67.70;;;;;;4964789;28;96260;-49
2021/08/25 12:39:43;;;;;;;3.75;2.15;;;15.80;67.70;;;;;;4962934;28;95730;-50
2021/08/25 12:42:14;;;;;;;2.35;1.95;;;15.80;67.70;;;;;;4964445;28;96106;-49
2021/08/25 12:44:45;;;;;;;2.58;1.67;;;15.70;67.70;;;;;;4964189;28;96471;-48
2021/08/25 12:47:16;;;;;;;4.18;2.05;;;15.70;67.60;;;;;;4964654;28;97068;-49
2021/08/25 12:49:49;;;;;;;3.05;1.88;;;15.70;67.70;;;;;;4967409;28;95711;-50
2021/08/25 12:52:22;;;;;;;4.15;2.08;;;15.70;67.70;;;;;;4979879;28;95913;-48
2021/08/25 12:54:56;;;;;;;3.65;2.05;;;15.60;67.70;;;;;;4953823;28;97010;-49
2021/08/25 12:57:27;;;;;;;3.80;2.35;;;15.60;67.80;;;;;;4955399;28;97687;-48
2021/08/25 12:59:59;;;;;;;2.90;2.03;;;15.60;67.70;;;;;;4951293;28;95835;-49
2021/08/25 13:02:30;;;;;;;4.45;2.45;;;15.60;67.80;;;;;;4951932;28;95752;-48
2021/08/25 13:05:01;;;;;;;;;;;15.60;67.80;;;;;;4957891;28;96372;-47
2021/08/25 13:07:32;;;;;;;3.70;2.13;;;15.60;67.80;;;;;;4955778;28;95231;-47
2021/08/25 13:10:03;;;;;;;;;;;15.50;67.80;;;;;;4952371;28;95895;-47
2021/08/25 13:12:34;;;;;;;4.32;2.33;;;15.50;67.90;;;;;;4951353;28;95648;-50
2021/08/25 13:15:05;;;;;;;7.22;3.42;;;15.50;68.00;;;;;;4952742;28;95935;-48
2021/08/25 13:17:38;;;;;;;6.10;2.33;;;15.40;67.90;;;;;;4948904;28;95628;-47
2021/08/25 13:20:12;;;;;;;3.30;2.03;;;15.40;67.90;;;;;;4955053;28;95577;-48
2021/08/25 13:22:45;;;;;;;3.45;2.05;;;15.40;68.00;;;;;;4953926;28;95842;-48
2021/08/25 13:25:16;;;;;;;2.95;2.17;;;15.30;67.90;;;;;;4954288;28;96037;-50